METAR AND TAF INFORMATION
METAR FOR EHWO
ADDS - METARS form results

(0701 UTC 23 January 2019)
Data provider http://aviationweather.gov/metar/data/
 
METAR text: EHWO 230655Z AUTO 08006KT 6000 BR OVC029 M03/M04 Q0997 BLACKWHT 08006KT 6000 BKN025 BKN030 OVC070
Conditions at: EHWO (WOENSDRECHT RNLA, NL) observed 0655 UTC 23 January 2019
Temperature: -3.0°C (27°F)
Dewpoint: -4.0°C (25°F) [RH = 93%]
Pressure (altimeter): 29.44 inches Hg (997.0 mb)
Winds: from the E (80 degrees) at 7 MPH (6 knots; 3.1 m/s)
Visibility: 4 miles ( 6 km)
Ceiling: 2900 feet AGL
Clouds: overcast cloud deck at 2900 feet AGL
broken clouds at 2500 feet AGL
broken clouds at 3000 feet AGL
overcast cloud deck at 7000 feet AGL
Weather: BR  (mist)

METAR text: EHWO 230636Z AUTO 07006KT 6000 BR OVC029 M03/M04 Q0997 BLACKWHT 08006KT 6000 BKN025 BKN030 OVC070
Conditions at: EHWO (WOENSDRECHT RNLA, NL) observed 0636 UTC 23 January 2019
Temperature: -3.0°C (27°F)
Dewpoint: -4.0°C (25°F) [RH = 93%]
Pressure (altimeter): 29.44 inches Hg (997.0 mb)
Winds: from the ENE (70 degrees) at 7 MPH (6 knots; 3.1 m/s)
Visibility: 4 miles ( 6 km)
Ceiling: 2900 feet AGL
Clouds: overcast cloud deck at 2900 feet AGL
broken clouds at 2500 feet AGL
broken clouds at 3000 feet AGL
overcast cloud deck at 7000 feet AGL
Weather: BR  (mist)

METAR text: EHWO 230625Z AUTO 08006KT 5000 BR BKN027 OVC030 M02/M03 Q0996 BLACKWHT 08006KT 6000 BKN025 BKN030 OVC070
Conditions at: EHWO (WOENSDRECHT RNLA, NL) observed 0625 UTC 23 January 2019
Temperature: -2.0°C (28°F)
Dewpoint: -3.0°C (27°F) [RH = 93%]
Pressure (altimeter): 29.41 inches Hg (996.0 mb)
Winds: from the E (80 degrees) at 7 MPH (6 knots; 3.1 m/s)
Visibility: 3 miles ( 5 km)
Ceiling: 2700 feet AGL
Clouds: broken clouds at 2700 feet AGL
overcast cloud deck at 3000 feet AGL
broken clouds at 2500 feet AGL
broken clouds at 3000 feet AGL
Weather: BR  (mist)

METAR text: EHWO 230617Z AUTO 08006KT 040V100 5000 BR BKN026 BKN030 BKN053 M03/M03 Q0996 BLACKWHT
Conditions at: EHWO (WOENSDRECHT RNLA, NL) observed 0617 UTC 23 January 2019
Temperature: -3.0°C (27°F)
Dewpoint: -3.0°C (27°F) [RH = 100%]
Pressure (altimeter): 29.41 inches Hg (996.0 mb)
Winds: from the E (80 degrees) at 7 MPH (6 knots; 3.1 m/s)
Visibility: 3 miles ( 5 km)
Ceiling: 2600 feet AGL
Clouds: broken clouds at 2600 feet AGL
broken clouds at 3000 feet AGL
broken clouds at 5300 feet AGL
Weather: BR  (mist)

Forecast for: EHWO (WOENSDRECHT RNLA, NL)
Text: TAF EHWO 230512Z 2306/2318 08006KT 6000 NSC
Forecast period: 0600 to 1800 UTC 23 January 2019
Forecast type: FROM: standard forecast or significant change
Winds: from the E (80 degrees) at 7 MPH (6 knots; 3.1 m/s)
Visibility: 4 miles (6 km)
Ceiling: unknown
Clouds: missing
Weather: no significant weather forecast for this period
Text: PROB30
Forecast period: 0600 to 1000 UTC 23 January 2019
Forecast type: TEMPORARY: The following changes expected for less than half the time period
Visibility: 2.49 miles (4.01 km)
Ceiling: 2000 feet AGL
Clouds: few clouds at 800 feet AGL
scattered clouds at 1200 feet AGL
broken clouds at 2000 feet AGL
Weather: BR -SG  (mist, light snow grains)

 AIRPORT MAP

 RUNWAY INFORMATION
Runway 07 Runway length 7996 ft Runway width 148 ft
Runway elevation 39 ft Runway displaced threshold 0 ft Runway heading 69
Runway 25 Runway length 7996 ft Runway width 148 ft
Runway elevation 63 ft Runway displaced threshold 0 ft Runway heading 249

 AIRPORT FREQUENCIES
Type APP Name RAPCON WES Frequency 123.575 MHZ
Type ARR Name ARRIVAL Frequency 123.575 MHZ
Type TWR Name TWR Frequency 118.5 MHZ

 AIRPORT NEAR NAVIGATION AIDS
Type TACAN Name Woensdrecht Frequency 115000 KHZ